createdAt,value
2023-03-21T00:01:50.203Z,95771.59
2023-03-21T00:04:16.691Z,95775.41
2023-03-21T00:06:43.169Z,95776.69
2023-03-21T00:09:09.636Z,95769.97
2023-03-21T00:11:36.097Z,95778.38
2023-03-21T00:14:02.591Z,95781.13
2023-03-21T00:16:38.517Z,95770.63
2023-03-21T00:19:07.225Z,95776.50
2023-03-21T00:24:20.240Z,95765.66
2023-03-21T00:26:47.040Z,95762.72
2023-03-21T00:29:13.593Z,95760.09
2023-03-21T00:31:40.092Z,95758.28
2023-03-21T00:34:06.568Z,95758.09
2023-03-21T00:36:33.075Z,95758.09
2023-03-21T00:38:59.559Z,95751.19
2023-03-21T00:41:41.401Z,95748.72
2023-03-21T00:44:10.142Z,95752.16
2023-03-21T00:46:45.608Z,95752.47
2023-03-21T00:49:15.828Z,95746.72
2023-03-21T00:51:42.728Z,95743.13
2023-03-21T00:54:12.316Z,95738.69
2023-03-21T00:56:38.827Z,95747.22
2023-03-21T00:59:05.306Z,95738.34
2023-03-21T01:01:31.872Z,95735.72
2023-03-21T01:03:59.585Z,95734.88
2023-03-21T01:06:26.056Z,95734.75
2023-03-21T01:08:53.525Z,95740.47
2023-03-21T01:11:27.149Z,95742.28
2023-03-21T01:14:04.026Z,95743.63
2023-03-21T01:16:31.282Z,95744.72
2023-03-21T01:18:57.968Z,95736.53
2023-03-21T01:21:24.488Z,95739.66
2023-03-21T01:23:51.150Z,95731.13
2023-03-21T01:26:18.843Z,95735.03
2023-03-21T01:28:46.270Z,95740.31
2023-03-21T01:31:15.934Z,95733.41
2023-03-21T01:33:43.476Z,95734.03
2023-03-21T01:36:20.431Z,95739.28
2023-03-21T01:38:48.481Z,95729.75
2023-03-21T01:41:42.608Z,95730.59
2023-03-21T01:44:15.526Z,95732.38
2023-03-21T01:47:00.132Z,95735.38
2023-03-21T01:49:40.466Z,95727.78
2023-03-21T01:52:23.584Z,95726.50
2023-03-21T01:54:56.661Z,95730.56
2023-03-21T01:57:41.006Z,95728.06
2023-03-21T02:00:10.849Z,95729.72
2023-03-21T02:02:39.887Z,95729.69
2023-03-21T02:05:06.643Z,95727.00
2023-03-21T02:07:36.341Z,95720.84
2023-03-21T02:10:06.955Z,95730.84
2023-03-21T02:12:33.909Z,95730.97
2023-03-21T02:15:00.808Z,95727.06
2023-03-21T02:17:56.439Z,95732.31
2023-03-21T02:20:54.798Z,95722.31
2023-03-21T02:23:48.914Z,95724.69
2023-03-21T02:26:48.221Z,95715.81
2023-03-21T02:29:41.513Z,95720.16
2023-03-21T02:32:18.180Z,95718.19
2023-03-21T02:35:19.470Z,95727.38
2023-03-21T02:38:00.776Z,95719.78
2023-03-21T02:40:39.379Z,95714.84
2023-03-21T02:43:38.050Z,95716.50
2023-03-21T02:46:24.164Z,95712.22
2023-03-21T02:49:07.140Z,95716.38
2023-03-21T02:51:36.709Z,95710.94
2023-03-21T02:54:45.271Z,95713.56
2023-03-21T02:57:02.315Z,95713.56
2023-03-21T02:59:29.853Z,95704.34
2023-03-21T03:01:56.396Z,95705.66
2023-03-21T03:04:26.301Z,95708.91
2023-03-21T03:07:02.780Z,95716.09
2023-03-21T03:10:13.988Z,95718.13
2023-03-21T03:13:11.190Z,95718.44
2023-03-21T03:16:08.338Z,95717.75
2023-03-21T03:18:52.368Z,95720.13
2023-03-21T03:21:55.055Z,95716.72
2023-03-21T03:24:26.727Z,95722.34
2023-03-21T03:26:59.644Z,95720.53
2023-03-21T03:29:30.518Z,95717.09
2023-03-21T03:32:10.542Z,95707.28
2023-03-21T03:34:42.836Z,95719.41
2023-03-21T03:37:15.577Z,95718.94
2023-03-21T03:39:57.852Z,95713.00
2023-03-21T03:42:36.911Z,95703.13
2023-03-21T03:45:06.487Z,95716.22
2023-03-21T03:47:57.039Z,95721.84
2023-03-21T03:50:31.930Z,95715.06
2023-03-21T03:53:17.579Z,95714.16
2023-03-21T03:55:45.603Z,95713.19
2023-03-21T03:58:21.766Z,95715.06
2023-03-21T04:00:51.299Z,95707.97
2023-03-21T04:03:17.822Z,95706.53
2023-03-21T04:05:44.459Z,95705.53
2023-03-21T04:08:10.962Z,95707.56
2023-03-21T04:10:37.655Z,95716.09
2023-03-21T04:13:04.344Z,95712.16
2023-03-21T04:15:30.819Z,95709.00
2023-03-21T04:17:57.331Z,95708.84
2023-03-21T04:20:36.107Z,95704.94
2023-03-21T04:23:10.303Z,95704.94
2023-03-21T04:25:44.678Z,95700.66
2023-03-21T04:28:14.278Z,95707.84
2023-03-21T04:30:41.193Z,95716.06
2023-03-21T04:33:07.837Z,95718.66
2023-03-21T04:35:37.041Z,95718.34
2023-03-21T04:38:04.020Z,95719.50
2023-03-21T04:40:30.493Z,95715.94
2023-03-21T04:42:56.965Z,95713.31
2023-03-21T04:45:23.512Z,95716.38
2023-03-21T04:47:50.114Z,95716.72
2023-03-21T04:50:16.605Z,95710.66
2023-03-21T04:52:43.103Z,95716.09
2023-03-21T04:55:09.940Z,95716.72
2023-03-21T04:57:39.926Z,95715.38
2023-03-21T05:00:08.478Z,95712.72
2023-03-21T05:02:35.081Z,95724.25
2023-03-21T05:05:01.563Z,95716.38
2023-03-21T05:07:28.054Z,95713.59
2023-03-21T05:09:54.549Z,95718.94
2023-03-21T05:12:21.047Z,95717.31
2023-03-21T05:14:47.505Z,95720.88
2023-03-21T05:17:14.086Z,95710.69
2023-03-21T05:19:40.889Z,95719.91
2023-03-21T05:22:10.390Z,95711.03
2023-03-21T05:24:37.719Z,95704.88
2023-03-21T05:27:04.216Z,95708.50
2023-03-21T05:29:32.523Z,95702.59
2023-03-21T05:32:00.825Z,95704.25
2023-03-21T05:34:28.660Z,95703.91
2023-03-21T05:36:55.347Z,95699.97
2023-03-21T05:39:22.309Z,95702.53
2023-03-21T05:41:49.125Z,95704.88
2023-03-21T05:44:15.588Z,95703.25
2023-03-21T05:46:42.079Z,95700.16
2023-03-21T05:49:10.119Z,95707.88
2023-03-21T05:51:36.739Z,95707.50
2023-03-21T05:54:03.306Z,95708.50
2023-03-21T05:56:29.814Z,95705.72
2023-03-21T05:58:56.354Z,95706.88
2023-03-21T06:01:22.891Z,95707.16
2023-03-21T06:03:49.454Z,95708.50
2023-03-21T06:06:16.052Z,95723.13
2023-03-21T06:08:42.614Z,95720.81
2023-03-21T06:11:22.926Z,95722.66
2023-03-21T06:13:49.424Z,95723.34
2023-03-21T06:16:15.926Z,95730.91
2023-03-21T06:18:42.443Z,95722.06
2023-03-21T06:21:08.938Z,95727.00
2023-03-21T06:23:35.407Z,95721.09
2023-03-21T06:26:02.171Z,95723.69
2023-03-21T06:28:28.633Z,95724.75
2023-03-21T06:30:55.237Z,95727.06
2023-03-21T06:33:21.788Z,95726.59
2023-03-21T06:35:55.668Z,95723.50
2023-03-21T06:38:23.324Z,95731.56
2023-03-21T06:40:49.991Z,95720.75
2023-03-21T06:43:16.717Z,95731.44
2023-03-21T06:45:44.044Z,95734.75
2023-03-21T06:48:11.839Z,95735.09
2023-03-21T06:50:38.402Z,95733.94
2023-03-21T06:53:06.079Z,95743.28
2023-03-21T06:55:32.580Z,95739.38
2023-03-21T06:57:59.109Z,95735.09
2023-03-21T07:00:25.858Z,95742.88
2023-03-21T07:02:52.540Z,95741.03
2023-03-21T07:05:19.238Z,95744.50
2023-03-21T07:07:45.724Z,95748.63
2023-03-21T07:10:12.608Z,95746.81
2023-03-21T07:12:39.108Z,95744.84
2023-03-21T07:15:07.384Z,95743.53
2023-03-21T07:17:34.112Z,95743.00
2023-03-21T07:20:00.617Z,95746.09
2023-03-21T07:22:27.108Z,95741.03
2023-03-21T07:25:04.299Z,95743.97
2023-03-21T07:27:31.497Z,95745.66
2023-03-21T07:29:57.992Z,95745.47
2023-03-21T07:32:24.502Z,95743.16
2023-03-21T07:34:51.013Z,95746.59
2023-03-21T07:37:17.499Z,95746.25
2023-03-21T07:39:44.104Z,95745.59
2023-03-21T07:42:10.608Z,95750.84
2023-03-21T07:44:37.176Z,95761.22
2023-03-21T07:47:05.288Z,95753.41
2023-03-21T07:49:31.979Z,95762.69
2023-03-21T07:51:58.566Z,95765.59
2023-03-21T07:54:25.227Z,95765.09
2023-03-21T07:56:51.806Z,95759.63
2023-03-21T07:59:18.341Z,95764.56
2023-03-21T08:01:44.798Z,95758.84
2023-03-21T08:04:11.799Z,95763.28
2023-03-21T08:06:38.458Z,95760.28
2023-03-21T08:09:05.253Z,95767.25
2023-03-21T08:11:31.837Z,95758.56
2023-03-21T08:13:59.548Z,95764.28
2023-03-21T08:16:26.736Z,95758.84
2023-03-21T08:18:53.464Z,95759.53
2023-03-21T08:21:19.958Z,95757.22
2023-03-21T08:23:46.522Z,95752.41
2023-03-21T08:26:13.071Z,95758.44
2023-03-21T08:28:39.672Z,95755.63
2023-03-21T08:31:11.691Z,95754.34
2023-03-21T08:33:38.669Z,95760.34
2023-03-21T08:36:06.711Z,95759.75
2023-03-21T08:38:33.250Z,95758.63
2023-03-21T08:41:00.748Z,95760.63
2023-03-21T08:43:28.654Z,95753.06
2023-03-21T08:45:55.941Z,95748.06
2023-03-21T08:48:23.154Z,95748.13
2023-03-21T08:50:49.793Z,95744.28
2023-03-21T08:53:16.293Z,95744.44
2023-03-21T08:55:44.195Z,95747.19
2023-03-21T08:58:10.710Z,95747.19
2023-03-21T09:00:37.388Z,95748.47
2023-03-21T09:03:03.964Z,95747.84
2023-03-21T09:05:30.716Z,95742.56
2023-03-21T09:07:57.185Z,95747.78
2023-03-21T09:10:43.664Z,95743.81
2023-03-21T09:13:30.128Z,95744.38
2023-03-21T09:16:16.612Z,95740.34
2023-03-21T09:19:03.363Z,95736.81
2023-03-21T09:21:30.935Z,95735.06
2023-03-21T09:23:58.185Z,95734.78
2023-03-21T09:26:25.477Z,95737.78
2023-03-21T09:28:51.949Z,95736.69
2023-03-21T09:31:19.212Z,95740.34
2023-03-21T09:33:45.713Z,95743.25
2023-03-21T09:36:12.499Z,95745.06
2023-03-21T09:38:39.276Z,95742.25
2023-03-21T09:41:05.725Z,95745.34
2023-03-21T09:43:50.757Z,95738.41
2023-03-21T09:46:26.764Z,95741.50
2023-03-21T09:48:58.222Z,95736.91
2023-03-21T09:51:36.070Z,95737.50
2023-03-21T09:54:12.524Z,95727.28
2023-03-21T09:56:44.720Z,95730.44
2023-03-21T09:59:33.374Z,95725.00
2023-03-21T10:02:00.947Z,95724.56
2023-03-21T10:04:27.684Z,95726.94
2023-03-21T10:07:00.951Z,95726.69
2023-03-21T10:09:31.071Z,95713.94
2023-03-21T10:12:22.056Z,95709.91
2023-03-21T10:14:53.744Z,95708.19
2023-03-21T10:17:35.249Z,95704.78
2023-03-21T10:20:15.368Z,95691.78
2023-03-21T10:22:44.789Z,95698.47
2023-03-21T10:25:17.262Z,95700.53
2023-03-21T10:27:45.886Z,95697.88
2023-03-21T10:30:25.985Z,95691.63
2023-03-21T10:32:52.846Z,95694.59
2023-03-21T10:35:19.945Z,95703.31
2023-03-21T10:37:47.187Z,95691.31
2023-03-21T10:40:18.138Z,95688.31
2023-03-21T10:42:44.947Z,95684.53
2023-03-21T10:45:17.748Z,95692.44
2023-03-21T10:47:48.383Z,95685.81
2023-03-21T10:50:18.248Z,95686.78
2023-03-21T10:52:51.311Z,95684.22
2023-03-21T10:55:26.253Z,95688.41
2023-03-21T10:58:07.663Z,95686.50
2023-03-21T11:00:40.167Z,95687.03
2023-03-21T11:03:19.706Z,95683.38
2023-03-21T11:05:47.848Z,95678.84
2023-03-21T11:08:19.444Z,95676.34
2023-03-21T11:10:55.116Z,95677.41
2023-03-21T11:13:47.226Z,95679.09
2023-03-21T11:16:29.851Z,95677.84
2023-03-21T11:19:01.511Z,95675.06
2023-03-21T11:21:35.647Z,95678.81
2023-03-21T11:24:03.927Z,95675.78
2023-03-21T11:26:35.944Z,95666.72
2023-03-21T11:29:29.608Z,95666.50
2023-03-21T11:32:12.506Z,95668.28
2023-03-21T11:34:49.960Z,95662.28
2023-03-21T11:37:46.178Z,95656.34
2023-03-21T11:40:30.962Z,95660.66
2023-03-21T11:43:00.277Z,95646.81
2023-03-21T11:45:37.104Z,95644.00
2023-03-21T11:48:14.066Z,95639.16
2023-03-21T11:50:47.142Z,95632.28
2023-03-21T11:53:35.907Z,95625.44
2023-03-21T11:56:20.401Z,95626.16
2023-03-21T11:59:01.983Z,95613.81
2023-03-21T12:01:44.750Z,95610.84
2023-03-21T12:04:29.892Z,95613.16
2023-03-21T12:07:08.916Z,95599.97
2023-03-21T12:10:03.365Z,95597.50
2023-03-21T12:12:39.409Z,95603.97
2023-03-21T12:15:13.370Z,95601.56
2023-03-21T12:18:07.740Z,95598.53
2023-03-21T12:20:45.235Z,95595.09
2023-03-21T12:23:40.314Z,95582.47
2023-03-21T12:26:19.468Z,95580.81
2023-03-21T12:29:00.905Z,95572.47
2023-03-21T12:31:53.099Z,95568.59
2023-03-21T12:34:57.507Z,95566.78
2023-03-21T12:37:39.654Z,95562.28
2023-03-21T12:40:19.501Z,95560.00
2023-03-21T12:43:08.956Z,95558.78
2023-03-21T12:45:47.248Z,95557.13
2023-03-21T12:48:35.638Z,95553.06
2023-03-21T12:51:08.655Z,95544.47
2023-03-21T12:54:03.044Z,95549.34
2023-03-21T12:56:55.880Z,95549.00
2023-03-21T12:59:44.040Z,95538.53
2023-03-21T13:02:23.737Z,95550.00
2023-03-21T13:05:01.189Z,95550.13
2023-03-21T13:07:34.161Z,95540.81
2023-03-21T13:10:03.534Z,95543.56
2023-03-21T13:12:45.511Z,95535.31
2023-03-21T13:15:46.105Z,95527.31
2023-03-21T13:18:31.216Z,95535.31
2023-03-21T13:21:04.741Z,95532.66
2023-03-21T13:23:38.336Z,95531.13
2023-03-21T13:26:10.830Z,95528.81
2023-03-21T13:28:41.259Z,95524.25
2023-03-21T13:31:26.734Z,95516.72
2023-03-21T13:33:58.640Z,95518.59
2023-03-21T13:36:29.785Z,95515.00
2023-03-21T13:39:02.360Z,95510.50
2023-03-21T13:41:36.027Z,95513.81
2023-03-21T13:44:02.471Z,95514.91
2023-03-21T13:46:28.987Z,95518.59
2023-03-21T13:48:59.769Z,95509.06
2023-03-21T13:51:29.505Z,95506.78
2023-03-21T13:54:06.491Z,95498.94
2023-03-21T13:56:44.993Z,95499.75
2023-03-21T13:59:17.701Z,95483.59
2023-03-21T14:01:59.357Z,95491.34
2023-03-21T14:04:42.029Z,95479.78
2023-03-21T14:07:14.304Z,95474.53
2023-03-21T14:09:47.459Z,95472.09
2023-03-21T14:12:18.083Z,95467.00
2023-03-21T14:15:06.806Z,95466.22
2023-03-21T14:17:36.862Z,95460.38
2023-03-21T14:20:18.252Z,95458.94
2023-03-21T14:22:48.190Z,95471.06
2023-03-21T14:25:18.038Z,95464.81
2023-03-21T14:27:51.273Z,95466.09
2023-03-21T14:30:33.078Z,95467.03
2023-03-21T14:33:07.836Z,95470.63
2023-03-21T14:35:35.511Z,95462.78
2023-03-21T14:38:06.293Z,95464.78
2023-03-21T14:40:32.871Z,95459.63
2023-03-21T14:43:05.123Z,95455.34
2023-03-21T14:45:35.530Z,95454.06
2023-03-21T14:48:15.058Z,95453.44
2023-03-21T14:50:51.590Z,95448.56
2023-03-21T14:53:33.223Z,95448.22
2023-03-21T14:55:59.680Z,95452.34
2023-03-21T14:58:27.320Z,95444.38
2023-03-21T15:01:00.572Z,95453.38
2023-03-21T15:03:27.311Z,95447.25
2023-03-21T15:05:56.170Z,95452.38
2023-03-21T15:08:25.743Z,95457.31
2023-03-21T15:11:07.162Z,95455.34
2023-03-21T15:13:50.324Z,95456.25
2023-03-21T15:16:19.134Z,95462.44
2023-03-21T15:18:46.350Z,95460.69
2023-03-21T15:21:20.953Z,95457.69
2023-03-21T15:23:53.526Z,95463.03
2023-03-21T15:26:24.142Z,95452.31
2023-03-21T15:28:56.877Z,95453.38
2023-03-21T15:31:29.540Z,95451.06
2023-03-21T15:33:56.648Z,95445.75
2023-03-21T15:36:32.039Z,95450.28
2023-03-21T15:39:06.561Z,95449.84
2023-03-21T15:41:33.269Z,95456.50
2023-03-21T15:44:02.090Z,95449.63
2023-03-21T15:46:41.641Z,95450.50
2023-03-21T15:49:09.425Z,95448.38
2023-03-21T15:51:36.410Z,95450.13
2023-03-21T15:54:04.476Z,95452.50
2023-03-21T15:56:34.531Z,95451.44
2023-03-21T15:59:04.303Z,95463.34
2023-03-21T16:01:33.397Z,95452.16
2023-03-21T16:04:09.402Z,95454.56
2023-03-21T16:06:52.228Z,95457.38
2023-03-21T16:09:19.743Z,95459.00
2023-03-21T16:11:54.937Z,95456.38
2023-03-21T16:14:23.314Z,95454.41
2023-03-21T16:16:50.679Z,95461.41
2023-03-21T16:19:17.614Z,95453.97
2023-03-21T16:21:44.219Z,95459.13
2023-03-21T16:24:11.800Z,95464.41
2023-03-21T16:26:43.567Z,95462.88
2023-03-21T16:29:14.220Z,95463.38
2023-03-21T16:31:41.927Z,95455.78
2023-03-21T16:34:08.634Z,95458.44
2023-03-21T16:36:38.626Z,95460.41
2023-03-21T16:39:18.885Z,95446.28
2023-03-21T16:41:46.103Z,95451.78
2023-03-21T16:44:12.567Z,95451.94
2023-03-21T16:46:39.103Z,95461.88
2023-03-21T16:49:05.648Z,95459.66
2023-03-21T16:51:35.502Z,95461.59
2023-03-21T16:54:02.581Z,95458.56
2023-03-21T16:56:38.687Z,95466.16
2023-03-21T16:59:06.460Z,95458.16
2023-03-21T17:01:33.710Z,95465.09
2023-03-21T17:04:00.199Z,95466.31
2023-03-21T17:06:29.720Z,95469.41
2023-03-21T17:08:57.941Z,95477.00
2023-03-21T17:11:27.375Z,95473.69
2023-03-21T17:13:54.996Z,95472.06
2023-03-21T17:16:26.770Z,95471.03
2023-03-21T17:18:55.370Z,95474.06
2023-03-21T17:21:25.204Z,95475.69
2023-03-21T17:23:52.598Z,95473.84
2023-03-21T17:26:25.723Z,95479.63
2023-03-21T17:28:55.233Z,95473.63
2023-03-21T17:31:24.377Z,95471.47
2023-03-21T17:33:51.507Z,95482.16
2023-03-21T17:36:23.006Z,95486.28
2023-03-21T17:38:49.502Z,95488.31
2023-03-21T17:41:18.608Z,95489.31
2023-03-21T17:43:45.535Z,95489.38
2023-03-21T17:46:18.446Z,95486.25
2023-03-21T17:48:45.753Z,95479.66
2023-03-21T17:51:13.434Z,95492.03
2023-03-21T17:53:40.534Z,95486.78
2023-03-21T17:56:14.436Z,95497.41
2023-03-21T17:58:41.099Z,95492.97
2023-03-21T18:01:07.778Z,95492.19
2023-03-21T18:03:34.480Z,95492.56
2023-03-21T18:06:01.024Z,95493.78
2023-03-21T18:08:27.539Z,95487.63
2023-03-21T18:10:53.992Z,95497.06
2023-03-21T18:13:20.439Z,95495.47
2023-03-21T18:15:48.342Z,95501.97
2023-03-21T18:18:14.931Z,95500.78
2023-03-21T18:20:58.503Z,95504.63
2023-03-21T18:23:25.679Z,95499.91
2023-03-21T18:25:52.326Z,95504.00
2023-03-21T18:28:21.277Z,95502.81
2023-03-21T18:33:39.781Z,95499.16
2023-03-21T18:36:08.133Z,95495.06
2023-03-21T18:38:35.409Z,95505.66
2023-03-21T18:41:02.142Z,95506.06
2023-03-21T18:46:15.410Z,95504.03
2023-03-21T18:48:41.927Z,95499.34
2023-03-21T18:51:08.412Z,95507.53
2023-03-21T18:53:34.948Z,95509.59
2023-03-21T18:56:01.997Z,95504.47
2023-03-21T18:58:28.548Z,95508.13
2023-03-21T19:00:57.175Z,95513.88
2023-03-21T19:03:35.669Z,95506.31
2023-03-21T19:06:05.095Z,95518.97
2023-03-21T19:08:32.685Z,95516.50
2023-03-21T19:11:04.356Z,95522.84
2023-03-21T19:13:35.692Z,95521.63
2023-03-21T19:16:03.106Z,95525.69
2023-03-21T19:18:50.248Z,95526.50
2023-03-21T19:21:17.407Z,95526.91
2023-03-21T19:24:20.961Z,95528.94
2023-03-21T19:26:30.586Z,95529.94
2023-03-21T19:28:57.054Z,95526.03
2023-03-21T19:31:23.719Z,95520.34
2023-03-21T19:33:50.746Z,95519.94
2023-03-21T19:36:22.163Z,95523.63
2023-03-21T19:38:51.313Z,95528.06
2023-03-21T19:41:20.213Z,95525.59
2023-03-21T19:43:54.121Z,95530.69
2023-03-21T19:46:22.706Z,95525.59
2023-03-21T19:48:49.188Z,95525.97
2023-03-21T19:51:31.191Z,95523.94
2023-03-21T19:54:04.394Z,95519.44
2023-03-21T19:56:31.889Z,95522.31
2023-03-21T19:58:59.279Z,95524.34
2023-03-21T20:01:25.841Z,95518.63
2023-03-21T20:03:52.594Z,95518.19
2023-03-21T20:06:20.211Z,95517.38
2023-03-21T20:09:33.955Z,95515.72
2023-03-21T20:11:33.894Z,95519.41
2023-03-21T20:14:00.677Z,95519.41
2023-03-21T20:16:34.255Z,95515.34
2023-03-21T20:19:01.344Z,95514.09
2023-03-21T20:21:33.792Z,95517.75
2023-03-21T20:24:06.806Z,95525.66
2023-03-21T20:26:33.459Z,95515.53
2023-03-21T20:29:37.280Z,95521.22
2023-03-21T20:31:46.373Z,95524.88
2023-03-21T20:34:12.983Z,95523.22
2023-03-21T20:36:41.287Z,95531.16
2023-03-21T20:39:09.752Z,95531.94
2023-03-21T20:41:36.930Z,95525.22
2023-03-21T20:46:50.313Z,95532.75
2023-03-21T20:49:16.862Z,95526.19
2023-03-21T20:54:30.122Z,95538.34
2023-03-21T20:56:56.704Z,95534.69
2023-03-21T20:59:27.304Z,95535.69
2023-03-21T21:01:57.874Z,95543.97
2023-03-21T21:04:43.160Z,95537.53
2023-03-21T21:07:19.281Z,95534.72
2023-03-21T21:09:46.950Z,95530.25
2023-03-21T21:12:15.215Z,95534.34
2023-03-21T21:14:42.483Z,95534.16
2023-03-21T21:17:40.657Z,95532.72
2023-03-21T21:19:56.162Z,95532.09
2023-03-21T21:22:22.683Z,95532.53
2023-03-21T21:24:49.180Z,95521.19
2023-03-21T21:27:15.648Z,95531.81
2023-03-21T21:29:42.122Z,95522.50
2023-03-21T21:32:08.669Z,95521.69
2023-03-21T21:34:35.125Z,95524.53
2023-03-21T21:37:01.675Z,95521.28
2023-03-21T21:39:28.130Z,95511.53
2023-03-21T21:41:54.622Z,95514.38
2023-03-21T21:44:21.090Z,95510.28
2023-03-21T21:46:47.675Z,95518.50
2023-03-21T21:49:14.258Z,95520.94
2023-03-21T21:51:40.764Z,95522.19
2023-03-21T21:54:07.253Z,95523.41
2023-03-21T21:56:34.233Z,95524.84
2023-03-21T21:59:01.520Z,95520.59
2023-03-21T22:01:29.316Z,95516.94
2023-03-21T22:03:56.848Z,95517.75
2023-03-21T22:06:24.229Z,95518.53
2023-03-21T22:08:50.721Z,95516.53
2023-03-21T22:11:18.328Z,95521.59
2023-03-21T22:13:45.300Z,95521.00
2023-03-21T22:16:11.864Z,95513.88
2023-03-21T22:18:38.464Z,95519.72
2023-03-21T22:21:06.188Z,95524.16
2023-03-21T22:23:32.983Z,95518.47
2023-03-21T22:25:59.737Z,95513.75
2023-03-21T22:28:26.416Z,95518.47
2023-03-21T22:30:53.547Z,95506.66
2023-03-21T22:33:20.519Z,95516.88
2023-03-21T22:35:47.313Z,95514.22
2023-03-21T22:38:13.818Z,95512.81
2023-03-21T22:40:40.511Z,95513.63
2023-03-21T22:43:07.226Z,95509.13
2023-03-21T22:45:33.781Z,95504.47
2023-03-21T22:48:00.575Z,95511.59
2023-03-21T22:50:28.150Z,95508.69
2023-03-21T22:52:54.626Z,95512.38
2023-03-21T22:55:21.124Z,95509.72
2023-03-21T22:57:47.625Z,95513.63
2023-03-21T23:00:14.535Z,95519.09
2023-03-21T23:02:41.539Z,95508.41
2023-03-21T23:05:09.727Z,95513.06
2023-03-21T23:07:36.312Z,95514.72
2023-03-21T23:10:03.789Z,95514.31
2023-03-21T23:12:30.714Z,95509.44
2023-03-21T23:14:57.316Z,95517.59
2023-03-21T23:17:23.845Z,95513.31
2023-03-21T23:19:50.413Z,95518.84
2023-03-21T23:22:16.927Z,95519.22
2023-03-21T23:24:43.423Z,95521.47
2023-03-21T23:27:09.952Z,95519.16
2023-03-21T23:29:36.446Z,95509.00
2023-03-21T23:32:03.105Z,95517.16
2023-03-21T23:34:29.672Z,95521.19
2023-03-21T23:36:56.154Z,95514.22
2023-03-21T23:39:22.628Z,95519.91
2023-03-21T23:41:49.093Z,95510.13
2023-03-21T23:44:15.595Z,95511.78
2023-03-21T23:46:42.094Z,95516.19
2023-03-21T23:49:09.281Z,95510.91
2023-03-21T23:51:35.785Z,95517.84
2023-03-21T23:54:02.281Z,95515.34
2023-03-21T23:56:28.758Z,95512.66
2023-03-21T23:58:57.387Z,95514.78
